Time;durP1;ratioP1;P1;durP2;ratioP2;P2;SDS_P1;SDS_P2;PMS_P1;PMS_P2;Temp;Humidity;BMP_temperature;BMP_pressure;BME280_temperature;BME280_humidity;BME280_pressure;Samples;Min_cycle;Max_cycle;Signal;HPM_P1;HPM_P2
2020/12/04 00:00:09;;;;;;;28.20;26.10;;;4.10;56.30;;;;;;5095163;28;20265;-65
2020/12/04 00:02:34;;;;;;;31.73;28.88;;;4.00;54.20;;;;;;5095170;28;20515;-65
2020/12/04 00:05:00;;;;;;;29.53;27.00;;;3.90;54.50;;;;;;5094810;28;20184;-65
2020/12/04 00:07:26;;;;;;;31.23;28.83;;;3.90;54.10;;;;;;5094357;28;20624;-65
2020/12/04 00:09:51;;;;;;;29.17;26.67;;;3.80;54.00;;;;;;5094692;28;20186;-65
2020/12/04 00:12:17;;;;;;;29.20;26.80;;;3.80;54.40;;;;;;5094721;28;20172;-65
2020/12/04 00:14:43;;;;;;;25.70;23.63;;;3.90;55.20;;;;;;5094601;28;20228;-65
2020/12/04 00:17:08;;;;;;;25.13;22.80;;;3.80;56.10;;;;;;5094571;28;20202;-64
2020/12/04 00:19:34;;;;;;;27.80;25.47;;;3.70;55.20;;;;;;5094969;28;20173;-65
2020/12/04 00:21:59;;;;;;;26.20;24.03;;;3.60;53.60;;;;;;5094375;28;20298;-65
2020/12/04 00:24:25;;;;;;;25.50;23.20;;;3.50;52.00;;;;;;5094381;28;20710;-65
2020/12/04 00:26:50;;;;;;;27.70;25.40;;;3.40;51.80;;;;;;5094365;28;20571;-65
2020/12/04 00:29:16;;;;;;;26.20;23.97;;;3.40;53.60;;;;;;5094606;28;20175;-65
2020/12/04 00:31:41;;;;;;;31.50;28.97;;;3.40;52.70;;;;;;5094492;28;20172;-65
2020/12/04 00:34:08;;;;;;;26.83;24.83;;;3.30;51.20;;;;;;5094231;28;20218;-65
2020/12/04 00:36:34;;;;;;;32.42;29.80;;;3.30;51.30;;;;;;5093962;28;20200;-65
2020/12/04 00:38:59;;;;;;;26.08;23.88;;;3.30;51.30;;;;;;5094006;28;20191;-65
2020/12/04 00:41:25;;;;;;;27.73;25.00;;;3.30;52.60;;;;;;5094246;28;20615;-65
2020/12/04 00:43:50;;;;;;;35.20;32.60;;;3.30;53.40;;;;;;5094400;28;20610;-65
2020/12/04 00:46:16;;;;;;;33.77;31.07;;;3.30;51.60;;;;;;5094412;28;20552;-65
2020/12/04 00:48:43;;;;;;;27.77;24.90;;;3.30;51.40;;;;;;5093695;28;20156;-65
2020/12/04 00:51:09;;;;;;;29.88;27.33;;;3.20;51.10;;;;;;5093929;28;20391;-65
2020/12/04 00:53:34;;;;;;;29.17;26.77;;;3.20;52.10;;;;;;5094028;28;20260;-65
2020/12/04 00:56:00;;;;;;;27.47;25.10;;;3.10;47.90;;;;;;5093961;28;20184;-65
2020/12/04 00:58:25;;;;;;;30.70;27.80;;;3.10;47.20;;;;;;5094027;28;20200;-65
2020/12/04 01:00:51;;;;;;;36.57;33.97;;;3.10;47.70;;;;;;5094267;28;20163;-65
2020/12/04 01:03:16;;;;;;;35.70;32.90;;;3.10;46.90;;;;;;5094239;28;20176;-65
2020/12/04 01:05:42;;;;;;;24.00;21.80;;;3.20;48.00;;;;;;5094018;28;20219;-65
2020/12/04 01:08:08;;;;;;;26.90;24.20;;;3.20;47.90;;;;;;5093668;28;20626;-65
2020/12/04 01:10:33;;;;;;;28.00;25.47;;;3.30;49.10;;;;;;5093896;28;20226;-65
2020/12/04 01:12:59;;;;;;;28.10;25.27;;;3.20;45.80;;;;;;5094026;28;20173;-65
2020/12/04 01:15:25;;;;;;;29.58;27.10;;;3.20;46.30;;;;;;5094089;28;20611;-65
2020/12/04 01:17:50;;;;;;;27.30;25.10;;;3.20;45.60;;;;;;5097057;28;20266;-65
2020/12/04 01:20:16;;;;;;;26.00;23.60;;;3.30;46.30;;;;;;5098000;28;20165;-65
2020/12/04 01:22:41;;;;;;;24.27;22.20;;;3.20;44.70;;;;;;5097959;28;20243;-65
2020/12/04 01:25:07;;;;;;;25.63;23.23;;;3.20;44.90;;;;;;5097608;28;20180;-65
2020/12/04 01:27:33;;;;;;;23.07;21.00;;;3.20;45.20;;;;;;5097434;28;20510;-65
2020/12/04 01:29:58;;;;;;;24.17;21.77;;;3.30;45.40;;;;;;5098110;28;20503;-65
2020/12/04 01:32:24;;;;;;;28.13;25.50;;;3.20;45.90;;;;;;5096848;28;20200;-66
2020/12/04 01:34:49;;;;;;;28.33;25.70;;;3.20;45.00;;;;;;5097304;28;20211;-65
2020/12/04 01:37:15;;;;;;;24.47;22.03;;;3.20;44.40;;;;;;5097210;28;20275;-65
2020/12/04 01:39:40;;;;;;;26.97;24.47;;;3.20;43.50;;;;;;5097703;28;20245;-65
2020/12/04 01:42:06;;;;;;;26.77;24.50;;;3.20;49.40;;;;;;5097955;28;20169;-65
2020/12/04 01:44:32;;;;;;;28.40;26.10;;;3.20;44.60;;;;;;5097747;28;20540;-65
2020/12/04 01:46:57;;;;;;;28.90;26.57;;;3.20;43.20;;;;;;5097700;28;20169;-65
2020/12/04 01:49:23;;;;;;;25.33;23.13;;;3.20;43.40;;;;;;5097235;28;20179;-65
2020/12/04 01:51:52;;;;;;;27.00;24.67;;;3.20;45.20;;;;;;5097332;28;20394;-65
2020/12/04 01:54:19;;;;;;;25.92;23.63;;;3.20;44.30;;;;;;5097011;28;20160;-65
2020/12/04 01:56:46;;;;;;;36.72;34.10;;;3.30;46.40;;;;;;5097146;28;20197;-66
2020/12/04 01:59:11;;;;;;;29.67;27.40;;;3.30;44.90;;;;;;5097590;28;20245;-65
2020/12/04 02:01:42;;;;;;;31.70;29.37;;;3.30;44.80;;;;;;5097649;28;20598;-65
2020/12/04 02:04:09;;;;;;;31.08;28.67;;;3.20;43.90;;;;;;5097367;28;20160;-65
2020/12/04 02:06:45;;;;;;;37.92;34.85;;;3.30;43.20;;;;;;5097196;28;20256;-65
2020/12/04 02:09:37;;;;;;;29.98;27.70;;;3.20;42.90;;;;;;5097471;28;20176;-65
2020/12/04 02:12:05;;;;;;;27.95;25.65;;;3.30;43.10;;;;;;5097235;28;20173;-65
2020/12/04 02:14:33;;;;;;;31.52;29.42;;;3.30;42.40;;;;;;5096642;28;20184;-65
2020/12/04 02:17:03;;;;;;;35.63;33.08;;;3.20;42.20;;;;;;5096709;28;20214;-65
2020/12/04 02:19:35;;;;;;;23.05;21.05;;;3.30;43.20;;;;;;5097082;28;20624;-65
2020/12/04 02:22:01;;;;;;;29.88;27.30;;;3.20;42.80;;;;;;5096983;28;20226;-65
2020/12/04 02:24:27;;;;;;;28.95;26.75;;;3.20;43.10;;;;;;5097146;28;20188;-65
2020/12/04 02:26:54;;;;;;;27.77;25.30;;;3.20;41.40;;;;;;5096062;28;20570;-65
2020/12/04 02:29:20;;;;;;;25.15;22.75;;;3.30;41.90;;;;;;5096667;28;20164;-65
2020/12/04 02:31:45;;;;;;;26.43;21.73;;;3.30;42.60;;;;;;5096688;28;20214;-65
2020/12/04 02:34:11;;;;;;;22.57;20.27;;;3.30;42.20;;;;;;5096143;28;20745;-65
2020/12/04 02:36:36;;;;;;;21.23;19.23;;;3.30;42.50;;;;;;5096814;28;20196;-65
2020/12/04 02:39:04;;;;;;;22.53;20.20;;;3.30;40.90;;;;;;5096153;28;20508;-65
2020/12/04 02:41:29;;;;;;;23.48;21.20;;;3.30;41.70;;;;;;5096517;28;20226;-65
2020/12/04 02:43:55;;;;;;;27.47;25.00;;;3.40;43.30;;;;;;5096382;28;20173;-65
2020/12/04 02:46:20;;;;;;;28.60;26.17;;;3.30;42.30;;;;;;5096401;28;20223;-65
2020/12/04 02:48:46;;;;;;;29.60;27.00;;;3.30;43.80;;;;;;5096251;28;20642;-65
2020/12/04 02:51:11;;;;;;;25.50;23.10;;;3.30;43.10;;;;;;5096626;28;20230;-65
2020/12/04 02:53:37;;;;;;;24.80;22.80;;;3.30;43.40;;;;;;5096586;28;20513;-66
2020/12/04 02:56:03;;;;;;;26.77;24.27;;;3.30;42.90;;;;;;5096112;28;20606;-65
2020/12/04 02:58:30;;;;;;;26.87;24.80;;;3.30;42.10;;;;;;5095849;28;20197;-65
2020/12/04 03:00:55;;;;;;;27.27;24.77;;;3.30;42.40;;;;;;5096301;28;20409;-65
2020/12/04 03:03:21;;;;;;;25.87;23.50;;;3.30;42.60;;;;;;5096055;28;20251;-65
2020/12/04 03:05:46;;;;;;;30.97;28.70;;;3.30;42.00;;;;;;5096229;28;20190;-65
2020/12/04 03:08:12;;;;;;;24.33;22.30;;;3.30;42.60;;;;;;5095767;28;20164;-65
2020/12/04 03:10:37;;;;;;;23.20;20.80;;;3.30;43.90;;;;;;5095700;28;20618;-65
2020/12/04 03:13:04;;;;;;;22.80;20.57;;;3.30;42.40;;;;;;5095784;28;20168;-65
2020/12/04 03:15:29;;;;;;;28.10;25.17;;;3.40;42.90;;;;;;5095999;28;20184;-64
2020/12/04 03:17:55;;;;;;;30.90;28.57;;;3.40;43.80;;;;;;5095227;28;20249;-65
2020/12/04 03:20:20;;;;;;;30.83;28.23;;;3.50;45.00;;;;;;5096083;28;20670;-65
2020/12/04 03:22:46;;;;;;;24.90;22.80;;;3.50;44.80;;;;;;5096053;28;20607;-65
2020/12/04 03:25:12;;;;;;;26.80;24.43;;;3.40;44.40;;;;;;5095637;28;20196;-65
2020/12/04 03:27:37;;;;;;;25.63;23.57;;;3.40;45.10;;;;;;5095241;28;20168;-65
2020/12/04 03:30:04;;;;;;;23.60;21.20;;;3.40;45.30;;;;;;5095579;28;20268;-65
2020/12/04 03:32:30;;;;;;;22.90;21.00;;;3.40;46.30;;;;;;5095492;28;20752;-65
2020/12/04 03:34:55;;;;;;;28.63;25.90;;;3.40;46.60;;;;;;5094921;28;20223;-64
2020/12/04 03:37:21;;;;;;;25.83;23.73;;;3.30;46.50;;;;;;5095416;28;20196;-65
2020/12/04 03:39:47;;;;;;;27.27;25.00;;;3.40;48.60;;;;;;5094634;28;20249;-65
2020/12/04 03:42:12;;;;;;;30.77;28.23;;;3.30;48.00;;;;;;5095364;28;20171;-65
2020/12/04 03:44:38;;;;;;;27.93;25.40;;;3.30;48.00;;;;;;5095202;28;20189;-65
2020/12/04 03:47:04;;;;;;;24.90;22.60;;;3.30;49.40;;;;;;5095062;28;20226;-65
2020/12/04 03:49:30;;;;;;;26.47;23.57;;;3.30;48.70;;;;;;5095426;28;20516;-65
2020/12/04 03:51:55;;;;;;;25.13;22.70;;;3.40;49.60;;;;;;5095474;28;20249;-64
2020/12/04 03:54:21;;;;;;;25.97;23.63;;;3.40;50.80;;;;;;5094755;28;20204;-65
2020/12/04 03:56:47;;;;;;;27.00;24.33;;;3.40;51.90;;;;;;5094918;28;20192;-65
2020/12/04 03:59:12;;;;;;;22.83;20.43;;;3.30;50.50;;;;;;5094860;28;20168;-65
2020/12/04 04:01:39;;;;;;;31.70;29.27;;;3.30;50.10;;;;;;5095104;28;20168;-65
2020/12/04 04:04:04;;;;;;;23.63;21.50;;;3.30;51.60;;;;;;5095240;28;20222;-65
2020/12/04 04:06:30;;;;;;;29.80;27.70;;;3.20;52.50;;;;;;5094596;28;20188;-65
2020/12/04 04:08:55;;;;;;;27.87;25.37;;;3.20;54.80;;;;;;5094441;28;20173;-65
2020/12/04 04:11:21;;;;;;;32.80;30.07;;;3.20;56.80;;;;;;5095001;28;20164;-65
2020/12/04 04:13:46;;;;;;;33.10;30.73;;;3.20;57.30;;;;;;5094713;28;20200;-65
2020/12/04 04:16:12;;;;;;;29.33;26.80;;;3.20;57.00;;;;;;5094756;28;20198;-64
2020/12/04 04:18:38;;;;;;;28.97;26.57;;;3.20;57.80;;;;;;5094089;28;20239;-65
2020/12/04 04:21:12;;;;;;;31.10;28.07;;;3.10;58.20;;;;;;5094924;28;20192;-66
2020/12/04 04:23:37;;;;;;;25.48;22.90;;;3.10;57.90;;;;;;5094631;28;20214;-65
2020/12/04 04:26:03;;;;;;;31.13;28.47;;;3.10;67.90;;;;;;5094359;28;20205;-65
2020/12/04 04:28:30;;;;;;;33.63;30.92;;;3.00;59.60;;;;;;5094456;28;20170;-65
2020/12/04 04:30:55;;;;;;;35.50;32.42;;;3.10;60.50;;;;;;5094689;28;20173;-65
2020/12/04 04:33:22;;;;;;;34.83;32.47;;;3.10;61.10;;;;;;5093947;28;20187;-65
2020/12/04 04:35:47;;;;;;;29.42;27.13;;;2.90;58.00;;;;;;5094225;28;20188;-66
2020/12/04 04:38:13;;;;;;;32.77;29.93;;;2.80;56.80;;;;;;5094022;28;20196;-65
2020/12/04 04:40:39;;;;;;;28.90;26.60;;;2.90;59.40;;;;;;5094380;28;20557;-65
2020/12/04 04:43:11;;;;;;;28.90;26.10;;;2.80;59.00;;;;;;5094318;28;20249;-65
2020/12/04 04:45:44;;;;;;;29.08;26.83;;;2.80;68.10;;;;;;5093943;28;20184;-65
2020/12/04 04:48:17;;;;;;;33.05;29.92;;;2.70;58.90;;;;;;5093980;28;20188;-66
2020/12/04 04:50:46;;;;;;;33.83;30.67;;;2.70;58.30;;;;;;5094172;28;20164;-65
2020/12/04 04:53:13;;;;;;;30.30;27.55;;;2.70;58.50;;;;;;5094061;28;20176;-65
2020/12/04 04:55:44;;;;;;;28.85;26.17;;;2.70;59.10;;;;;;5094152;28;20196;-65
2020/12/04 04:58:10;;;;;;;26.80;24.10;;;2.60;58.90;;;;;;5093714;28;20565;-65
2020/12/04 05:00:36;;;;;;;29.92;27.13;;;2.60;58.50;;;;;;5094355;28;20610;-65
2020/12/04 05:03:04;;;;;;;28.07;25.50;;;2.60;59.20;;;;;;5093814;28;20195;-65
2020/12/04 05:05:47;;;;;;;30.98;28.20;;;2.50;58.50;;;;;;5093833;28;20188;-65
2020/12/04 05:08:20;;;;;;;30.08;27.15;;;2.50;59.30;;;;;;5093652;28;20164;-65
2020/12/04 05:10:46;;;;;;;25.05;22.67;;;2.50;59.40;;;;;;5094565;28;20507;-65
2020/12/04 05:13:17;;;;;;;26.88;24.05;;;2.50;59.10;;;;;;5093984;28;20227;-65
2020/12/04 05:15:42;;;;;;;26.40;23.08;;;2.50;59.00;;;;;;5093717;28;20196;-65
2020/12/04 05:18:13;;;;;;;29.80;27.07;;;2.50;58.60;;;;;;5093621;28;20724;-65
2020/12/04 05:20:48;;;;;;;28.77;25.88;;;2.50;60.50;;;;;;5093934;28;20203;-65
2020/12/04 05:23:14;;;;;;;31.98;28.88;;;2.60;62.80;;;;;;5094146;28;20172;-65
2020/12/04 05:25:45;;;;;;;32.60;29.13;;;2.60;62.90;;;;;;5093613;28;20195;-66
2020/12/04 05:28:15;;;;;;;32.92;30.00;;;2.60;64.30;;;;;;5093391;28;20402;-65
2020/12/04 05:30:49;;;;;;;28.08;23.20;;;2.60;66.40;;;;;;5093906;28;20180;-65
2020/12/04 05:33:15;;;;;;;26.52;23.10;;;2.60;65.00;;;;;;5093595;28;20286;-65
2020/12/04 05:35:41;;;;;;;24.77;22.47;;;2.60;66.40;;;;;;5093817;28;20254;-65
2020/12/04 05:38:15;;;;;;;26.85;23.95;;;2.60;68.50;;;;;;5093440;28;20199;-66
2020/12/04 05:40:51;;;;;;;30.55;27.92;;;2.60;68.80;;;;;;5093406;28;20169;-65
2020/12/04 05:43:32;;;;;;;33.45;30.65;;;2.60;72.40;;;;;;5093785;28;20179;-65
2020/12/04 05:46:24;;;;;;;28.58;25.00;;;2.60;70.60;;;;;;5093767;28;20189;-65
2020/12/04 05:48:58;;;;;;;28.55;23.85;;;2.60;71.00;;;;;;5093108;28;21000;-65
2020/12/04 05:51:26;;;;;;;32.00;29.20;;;2.70;71.80;;;;;;5093617;28;20566;-65
2020/12/04 05:53:53;;;;;;;29.73;24.92;;;2.70;72.70;;;;;;5093508;28;20177;-65
2020/12/04 05:56:20;;;;;;;26.40;22.98;;;2.70;73.00;;;;;;5093463;28;20188;-65
2020/12/04 05:58:47;;;;;;;29.30;22.35;;;2.70;78.90;;;;;;5093088;28;20168;-65
2020/12/04 06:01:16;;;;;;;26.60;24.15;;;2.80;78.30;;;;;;5093773;28;20192;-65
2020/12/04 06:03:42;;;;;;;31.40;26.90;;;2.80;80.10;;;;;;5096505;28;20196;-65
2020/12/04 06:06:09;;;;;;;27.60;25.08;;;2.80;75.30;;;;;;5096916;28;20193;-65
2020/12/04 06:08:41;;;;;;;29.35;26.27;;;2.70;72.90;;;;;;5097069;28;20221;-65
2020/12/04 06:11:08;;;;;;;33.60;30.63;;;2.70;73.20;;;;;;5097327;28;20181;-65
2020/12/04 06:13:37;;;;;;;28.50;25.88;;;2.70;73.70;;;;;;5097386;28;20171;-64
2020/12/04 06:16:13;;;;;;;31.88;29.08;;;2.80;74.40;;;;;;5096686;28;20188;-65
2020/12/04 06:18:42;;;;;;;26.92;24.45;;;2.70;72.80;;;;;;5096828;28;20203;-65
2020/12/04 06:21:07;;;;;;;33.80;30.50;;;2.70;73.40;;;;;;5096945;28;20176;-65
2020/12/04 06:23:33;;;;;;;34.67;31.67;;;2.80;75.20;;;;;;5097156;28;20248;-65
2020/12/04 06:26:02;;;;;;;33.73;28.47;;;2.90;78.90;;;;;;5096919;28;20188;-65
2020/12/04 06:28:37;;;;;;;32.65;29.70;;;2.90;79.70;;;;;;5096524;28;20255;-65
2020/12/04 06:31:14;;;;;;;31.27;28.13;;;2.90;78.70;;;;;;5096825;28;20179;-65
2020/12/04 06:33:48;;;;;;;32.35;29.33;;;2.80;79.70;;;;;;5096602;28;20561;-65
2020/12/04 06:36:34;;;;;;;31.95;29.08;;;2.90;79.70;;;;;;5097010;28;20199;-65
2020/12/04 06:39:04;;;;;;;29.75;26.85;;;2.80;78.60;;;;;;5096269;28;20222;-65
2020/12/04 06:41:29;;;;;;;34.03;28.38;;;2.90;82.80;;;;;;5096538;28;20173;-65
2020/12/04 06:43:58;;;;;;;38.67;35.07;;;2.90;82.80;;;;;;5096578;28;20160;-65
2020/12/04 06:46:41;;;;;;;29.08;26.30;;;2.90;81.50;;;;;;5096644;28;20195;-65
2020/12/04 06:49:22;;;;;;;31.90;29.20;;;2.90;82.60;;;;;;5096035;28;20173;-65
2020/12/04 06:52:04;;;;;;;35.13;31.65;;;2.80;78.60;;;;;;5096360;28;20175;-65
2020/12/04 06:54:31;;;;;;;31.27;28.10;;;2.90;79.70;;;;;;5096322;28;20162;-65
2020/12/04 06:56:57;;;;;;;38.80;35.72;;;2.90;79.60;;;;;;5096413;28;20218;-65
2020/12/04 06:59:34;;;;;;;35.97;32.70;;;2.90;79.50;;;;;;5096325;28;20161;-65
2020/12/04 07:02:04;;;;;;;30.63;27.92;;;2.90;76.10;;;;;;5096207;28;20171;-65
2020/12/04 07:04:31;;;;;;;25.83;23.20;;;2.90;78.00;;;;;;5096001;28;20247;-65
2020/12/04 07:07:17;;;;;;;29.65;25.83;;;3.00;77.10;;;;;;5096041;28;20214;-65
2020/12/04 07:09:55;;;;;;;28.88;25.77;;;3.10;89.00;;;;;;5096338;28;20171;-65
2020/12/04 07:12:21;;;;;;;32.88;29.58;;;3.10;76.80;;;;;;5096121;28;20703;-65
2020/12/04 07:14:52;;;;;;;29.05;25.67;;;3.10;75.90;;;;;;5093318;28;20207;-65
2020/12/04 07:17:22;;;;;;;31.40;26.50;;;3.00;74.50;;;;;;5095871;28;20529;-66
2020/12/04 07:19:49;;;;;;;29.20;26.15;;;3.10;76.00;;;;;;5095761;28;20205;-65
2020/12/04 07:22:16;;;;;;;29.42;26.52;;;3.10;79.00;;;;;;5095847;28;20183;-65
2020/12/04 07:24:42;;;;;;;31.98;28.92;;;3.10;77.40;;;;;;5095391;28;20191;-65
2020/12/04 07:27:13;;;;;;;31.17;28.40;;;3.20;76.30;;;;;;5095513;28;20172;-65
2020/12/04 07:29:39;;;;;;;29.60;26.90;;;3.20;77.30;;;;;;5095470;28;20533;-65
2020/12/04 07:32:05;;;;;;;24.23;21.88;;;3.20;79.20;;;;;;5095242;28;20168;-65
2020/12/04 07:34:35;;;;;;;28.90;26.43;;;3.30;80.00;;;;;;5095021;28;20198;-65
2020/12/04 07:37:02;;;;;;;26.20;21.92;;;3.30;80.50;;;;;;5095569;28;20853;-65
2020/12/04 07:39:36;;;;;;;28.98;23.90;;;3.40;85.30;;;;;;5083151;28;20189;-67
2020/12/04 07:42:03;;;;;;;25.58;21.70;;;3.40;84.20;;;;;;5072061;28;20172;-66
2020/12/04 07:44:37;;;;;;;22.15;20.00;;;3.40;83.00;;;;;;5072096;28;20185;-66
2020/12/04 07:47:15;;;;;;;22.38;20.00;;;3.40;84.60;;;;;;5074586;28;20588;-65
2020/12/04 07:49:45;;;;;;;24.13;21.65;;;3.50;86.10;;;;;;5092908;28;20187;-65
2020/12/04 07:52:19;;;;;;;28.65;26.23;;;3.50;87.70;;;;;;5091812;28;20706;-66
2020/12/04 07:54:45;;;;;;;28.35;25.85;;;3.60;90.40;;;;;;5092695;28;20689;-66
2020/12/04 07:57:12;;;;;;;29.00;26.17;;;3.60;91.40;;;;;;5092279;28;20188;-67
2020/12/04 07:59:39;;;;;;;29.05;26.23;;;3.60;93.40;;;;;;5092815;28;20597;-66
2020/12/04 08:02:07;;;;;;;26.98;24.35;;;3.60;94.10;;;;;;5092669;28;20192;-65
2020/12/04 08:04:34;;;;;;;36.42;32.88;;;3.60;93.40;;;;;;5092704;28;20184;-66
2020/12/04 08:07:11;;;;;;;29.27;26.25;;;3.70;95.50;;;;;;5092795;28;20219;-70
2020/12/04 08:09:39;;;;;;;32.30;29.25;;;3.60;96.40;;;;;;5092149;28;20172;-66
2020/12/04 08:12:16;;;;;;;30.20;27.58;;;3.60;96.80;;;;;;5092573;28;20177;-66
2020/12/04 08:14:49;;;;;;;33.88;30.52;;;3.60;99.90;;;;;;5091093;28;20196;-66
2020/12/04 08:17:18;;;;;;;33.92;31.00;;;3.60;99.90;;;;;;5092447;28;20568;-66
2020/12/04 08:19:43;;;;;;;31.55;28.65;;;3.60;99.90;;;;;;5092084;28;20177;-66
2020/12/04 08:22:09;;;;;;;33.93;30.97;;;3.60;99.90;;;;;;5092300;28;20496;-66
2020/12/04 08:24:41;;;;;;;29.77;26.87;;;3.60;99.90;;;;;;5092071;28;20290;-65
2020/12/04 08:27:12;;;;;;;29.63;26.80;;;3.60;99.90;;;;;;5092016;28;20172;-66
2020/12/04 08:29:43;;;;;;;31.33;28.13;;;3.60;99.90;;;;;;5092076;28;20511;-65
2020/12/04 08:32:18;;;;;;;28.85;25.75;;;3.60;99.90;;;;;;5090443;28;20217;-66
2020/12/04 08:34:44;;;;;;;33.25;30.35;;;3.60;99.90;;;;;;5091948;28;20231;-66
2020/12/04 08:37:12;;;;;;;29.87;27.00;;;3.60;99.90;;;;;;5091923;28;20725;-65
2020/12/04 08:39:46;;;;;;;31.45;28.15;;;3.50;99.90;;;;;;5091836;28;20164;-66
2020/12/04 08:42:34;;;;;;;33.28;30.35;;;3.60;99.90;;;;;;5091939;28;20179;-66
2020/12/04 08:45:08;;;;;;;31.85;28.40;;;3.60;99.90;;;;;;5091093;28;20192;-65
2020/12/04 08:47:35;;;;;;;36.33;32.28;;;3.60;99.90;;;;;;5091355;28;20652;-65
2020/12/04 08:50:08;;;;;;;28.88;26.38;;;3.70;99.90;;;;;;5091804;28;20183;-65
2020/12/04 08:52:47;;;;;;;31.05;27.90;;;3.60;99.90;;;;;;5091838;28;20172;-67
2020/12/04 08:55:18;;;;;;;30.83;27.52;;;3.70;99.90;;;;;;5091565;28;20195;-67
2020/12/04 08:57:45;;;;;;;36.60;33.05;;;3.70;99.90;;;;;;5091446;28;20192;-66
2020/12/04 09:00:16;;;;;;;34.35;29.23;;;3.70;99.90;;;;;;5091622;28;20175;-68
2020/12/04 09:02:42;;;;;;;32.50;28.92;;;3.70;99.90;;;;;;5091729;28;20203;-66
2020/12/04 09:05:10;;;;;;;30.08;27.45;;;3.70;99.90;;;;;;5091543;28;20657;-67
2020/12/04 09:07:36;;;;;;;33.55;29.85;;;3.80;99.90;;;;;;5091706;28;20182;-66
2020/12/04 09:10:02;;;;;;;32.35;29.25;;;3.80;99.90;;;;;;5091651;28;20172;-65
2020/12/04 09:12:28;;;;;;;34.17;31.47;;;3.90;99.90;;;;;;5091473;28;20187;-66
2020/12/04 09:14:54;;;;;;;32.90;29.83;;;3.90;99.90;;;;;;5091564;28;20423;-67
2020/12/04 09:17:19;;;;;;;31.97;29.20;;;4.00;99.90;;;;;;5083457;28;20214;-66
2020/12/04 09:19:46;;;;;;;28.60;25.60;;;4.00;99.90;;;;;;5089882;28;20172;-66
2020/12/04 09:22:13;;;;;;;30.85;27.65;;;4.00;99.90;;;;;;5091605;28;20179;-65
2020/12/04 09:24:38;;;;;;;31.67;28.75;;;4.10;99.90;;;;;;5091456;28;20246;-66
2020/12/04 09:27:04;;;;;;;39.00;36.00;;;4.10;99.90;;;;;;5091641;28;20180;-67
2020/12/04 09:29:30;;;;;;;30.90;28.40;;;4.20;99.90;;;;;;5091365;28;20568;-65
2020/12/04 09:31:55;;;;;;;32.17;29.50;;;4.20;99.90;;;;;;5091543;28;20910;-67
2020/12/04 09:34:21;;;;;;;31.90;28.80;;;4.20;99.90;;;;;;5091318;28;20654;-66
2020/12/04 09:36:51;;;;;;;29.43;26.83;;;4.30;99.90;;;;;;5091446;28;20250;-66
2020/12/04 09:39:18;;;;;;;31.98;29.08;;;4.40;99.90;;;;;;5095287;28;20156;-67
2020/12/04 09:41:43;;;;;;;35.95;33.38;;;4.40;99.90;;;;;;5095402;28;20173;-67
2020/12/04 09:44:09;;;;;;;32.63;29.63;;;4.50;99.90;;;;;;5093829;28;20175;-67
2020/12/04 09:46:35;;;;;;;29.87;26.87;;;4.60;99.90;;;;;;5095261;28;20370;-66
2020/12/04 09:49:01;;;;;;;35.43;32.13;;;4.60;99.90;;;;;;5094172;28;20243;-67
2020/12/04 09:51:26;;;;;;;34.90;31.97;;;4.70;99.90;;;;;;5095120;28;20406;-65
2020/12/04 09:53:52;;;;;;;34.80;32.23;;;4.70;99.90;;;;;;5095148;28;20217;-66
2020/12/04 09:56:21;;;;;;;28.10;25.50;;;4.70;99.90;;;;;;5094154;28;20184;-66
2020/12/04 09:58:47;;;;;;;28.45;25.55;;;4.80;99.90;;;;;;5094819;28;20636;-67
2020/12/04 10:01:13;;;;;;;37.80;35.20;;;4.90;99.90;;;;;;5095079;28;20165;-66
2020/12/04 10:03:38;;;;;;;29.83;27.23;;;4.90;99.90;;;;;;5094975;28;20432;-66
2020/12/04 10:06:04;;;;;;;30.23;27.70;;;4.90;99.90;;;;;;5094883;28;20188;-66
2020/12/04 10:08:29;;;;;;;29.40;26.40;;;4.90;99.90;;;;;;5094687;28;20604;-67
2020/12/04 10:10:55;;;;;;;27.27;25.07;;;5.00;99.90;;;;;;5093497;28;20184;-65
2020/12/04 10:13:20;;;;;;;26.17;24.07;;;5.10;99.90;;;;;;5094647;28;20200;-67
2020/12/04 10:15:46;;;;;;;27.07;24.57;;;5.10;99.90;;;;;;5094662;28;20196;-66
2020/12/04 10:18:12;;;;;;;28.13;25.10;;;5.10;99.90;;;;;;5094600;28;20673;-67
2020/12/04 10:20:38;;;;;;;26.55;24.08;;;5.20;99.90;;;;;;5094710;28;20256;-65
2020/12/04 10:23:04;;;;;;;24.20;22.17;;;5.20;99.90;;;;;;5094769;28;20173;-66
2020/12/04 10:25:29;;;;;;;23.93;21.80;;;5.30;99.90;;;;;;5094547;28;20857;-66
2020/12/04 10:27:55;;;;;;;27.07;24.70;;;5.30;99.90;;;;;;5094469;28;20206;-65
2020/12/04 10:30:20;;;;;;;26.67;24.10;;;5.40;99.90;;;;;;5094502;28;20658;-66
2020/12/04 10:32:46;;;;;;;27.73;25.40;;;5.50;99.90;;;;;;5094494;28;20541;-66
2020/12/04 10:35:12;;;;;;;25.50;23.27;;;5.50;99.90;;;;;;5094245;28;20312;-67
2020/12/04 10:37:37;;;;;;;28.40;26.20;;;5.50;99.90;;;;;;5094040;28;20203;-66
2020/12/04 10:40:03;;;;;;;28.07;25.60;;;5.60;99.90;;;;;;5093442;28;20184;-66
2020/12/04 10:42:29;;;;;;;24.42;22.40;;;5.70;99.90;;;;;;5094229;28;20173;-65
2020/12/04 10:44:54;;;;;;;26.20;24.10;;;5.70;99.90;;;;;;5094273;28;20553;-67
2020/12/04 10:47:20;;;;;;;26.33;23.97;;;5.70;99.90;;;;;;5094113;28;20179;-66
2020/12/04 10:49:45;;;;;;;27.60;25.43;;;5.80;99.90;;;;;;5093733;28;20259;-65
2020/12/04 10:52:11;;;;;;;25.20;23.33;;;5.80;99.90;;;;;;5094109;28;20248;-66
2020/12/04 10:54:37;;;;;;;22.90;21.30;;;5.90;99.90;;;;;;5093906;28;21242;-66
2020/12/04 10:57:02;;;;;;;21.83;20.03;;;6.00;99.90;;;;;;5093947;28;20196;-67
2020/12/04 10:59:28;;;;;;;27.57;25.37;;;6.10;99.90;;;;;;5093701;28;20169;-66
2020/12/04 11:02:04;;;;;;;24.23;22.57;;;6.20;99.90;;;;;;5093891;28;20234;-68
2020/12/04 11:07:14;;;;;;;22.02;20.10;;;6.30;99.90;;;;;;5093987;28;20191;-66
2020/12/04 11:09:40;;;;;;;23.03;21.20;;;6.40;99.90;;;;;;5093457;28;20563;-66
2020/12/04 11:12:06;;;;;;;23.30;21.45;;;6.40;99.90;;;;;;5091629;28;20161;-66
2020/12/04 11:14:31;;;;;;;28.83;26.93;;;6.50;99.90;;;;;;5093578;28;20578;-66
2020/12/04 11:16:57;;;;;;;27.13;25.33;;;6.50;99.90;;;;;;5093634;28;20207;-66
2020/12/04 11:19:22;;;;;;;27.50;25.33;;;6.50;99.90;;;;;;5089027;28;20173;-67
2020/12/04 11:21:48;;;;;;;29.33;27.23;;;6.50;99.90;;;;;;5093165;28;20597;-66
2020/12/04 11:24:14;;;;;;;29.70;27.50;;;6.60;99.90;;;;;;5093029;28;20564;-67
2020/12/04 11:26:40;;;;;;;27.30;25.30;;;6.50;99.90;;;;;;5092553;28;20176;-65
2020/12/04 11:29:06;;;;;;;26.98;25.02;;;6.60;99.90;;;;;;5092890;28;20165;-65
2020/12/04 11:31:32;;;;;;;32.27;30.30;;;6.60;99.90;;;;;;5092924;28;20243;-66
2020/12/04 11:33:57;;;;;;;23.20;21.40;;;6.70;99.90;;;;;;5092993;28;20242;-65
2020/12/04 11:36:23;;;;;;;27.07;25.23;;;6.70;99.90;;;;;;5089610;28;20200;-65
2020/12/04 11:38:49;;;;;;;24.03;22.43;;;6.80;99.90;;;;;;5086143;28;20454;-67
2020/12/04 11:41:14;;;;;;;23.23;21.33;;;6.90;99.90;;;;;;5086296;28;20191;-65
2020/12/04 11:43:40;;;;;;;26.27;24.30;;;6.90;99.90;;;;;;5092605;28;20221;-67
2020/12/04 11:46:06;;;;;;;26.60;24.87;;;7.00;99.90;;;;;;5088882;28;20241;-67
2020/12/04 11:48:32;;;;;;;21.37;19.67;;;7.00;99.90;;;;;;5072077;28;20491;-66
2020/12/04 11:50:58;;;;;;;21.67;19.93;;;7.00;99.90;;;;;;5072323;28;20219;-65
2020/12/04 11:53:23;;;;;;;20.30;18.53;;;7.10;99.90;;;;;;5072198;28;20407;-66
2020/12/04 11:55:49;;;;;;;20.60;19.00;;;7.20;99.90;;;;;;5071765;28;20838;-66
2020/12/04 11:58:16;;;;;;;21.85;20.45;;;7.20;99.90;;;;;;5072093;28;20275;-66
2020/12/04 12:00:41;;;;;;;22.42;20.73;;;7.20;99.90;;;;;;5071634;28;20173;-67
2020/12/04 12:03:07;;;;;;;21.33;19.97;;;7.30;99.90;;;;;;5072647;28;20229;-66
2020/12/04 12:05:36;;;;;;;21.67;20.17;;;7.30;99.90;;;;;;5072171;28;20213;-66
2020/12/04 12:08:02;;;;;;;19.85;18.30;;;7.30;99.90;;;;;;5070698;28;20177;-66
2020/12/04 12:10:28;;;;;;;24.03;22.47;;;7.30;99.90;;;;;;5072042;28;20631;-66
2020/12/04 12:12:53;;;;;;;25.87;24.00;;;7.20;99.90;;;;;;5071746;28;20412;-67
2020/12/04 12:15:19;;;;;;;30.43;28.63;;;7.30;99.90;;;;;;5071811;28;20204;-66
2020/12/04 12:17:45;;;;;;;27.83;26.10;;;7.30;99.90;;;;;;5071665;28;20541;-67
2020/12/04 12:20:10;;;;;;;25.87;24.43;;;7.30;99.90;;;;;;5071649;28;20172;-66
2020/12/04 12:22:36;;;;;;;26.70;25.00;;;7.40;99.90;;;;;;5090613;28;20187;-67
2020/12/04 12:25:02;;;;;;;26.17;24.67;;;7.40;99.90;;;;;;5091849;28;20809;-67
2020/12/04 12:27:27;;;;;;;23.67;22.20;;;7.40;99.90;;;;;;5092046;28;20826;-66
2020/12/04 12:29:57;;;;;;;29.60;27.97;;;7.40;99.90;;;;;;5091535;28;20406;-67
2020/12/04 12:32:23;;;;;;;28.95;27.05;;;7.40;99.90;;;;;;5091855;28;20642;-67
2020/12/04 12:35:03;;;;;;;30.77;28.75;;;7.50;99.90;;;;;;5091417;28;20218;-66
2020/12/04 12:37:31;;;;;;;31.38;29.38;;;7.50;99.90;;;;;;5091812;28;20191;-66
2020/12/04 12:40:02;;;;;;;26.33;24.48;;;7.50;99.90;;;;;;5091435;28;20227;-67